Time;durP1;ratioP1;P1;durP2;ratioP2;P2;SDS_P1;SDS_P2;PMS_P1;PMS_P2;Temp;Humidity;BMP_temperature;BMP_pressure;BME280_temperature;BME280_humidity;BME280_pressure;Samples;Min_cycle;Max_cycle;Signal;HPM_P1;HPM_P2
2022/03/14 00:22:04;;;;;;;11.02;9.50;;;;;;;;;;4228133;29;20110;-62
2022/03/14 00:24:30;;;;;;;11.45;9.27;;;;;;;;;;4124039;34;20104;-62
2022/03/14 00:26:56;;;;;;;12.07;9.77;;;;;;;;;;4132632;34;20213;-62
2022/03/14 00:29:22;;;;;;;11.30;9.13;;;;;;;;;;4122268;34;20123;-62
2022/03/14 00:31:48;;;;;;;15.43;9.48;;;;;;;;;;4122169;34;20300;-61
2022/03/14 00:34:14;;;;;;;11.95;9.05;;;;;;;;;;4122304;34;20119;-60
2022/03/14 00:36:42;;;;;;;14.20;9.07;;;;;;;;;;4122430;34;20111;-60
2022/03/14 00:39:09;;;;;;;11.32;9.13;;;;;;;;;;4122228;34;20143;-61
2022/03/14 00:41:35;;;;;;;11.65;9.57;;;;;;;;;;4122297;34;20128;-64
2022/03/14 00:44:02;;;;;;;12.50;9.30;;;;;;;;;;4122212;34;20271;-64
2022/03/14 00:46:28;;;;;;;10.73;8.77;;;;;;;;;;4122159;34;20108;-64
2022/03/14 00:48:55;;;;;;;10.55;9.32;;;;;;;;;;4122400;34;20100;-65
2022/03/14 00:51:21;;;;;;;11.57;8.80;;;;;;;;;;4122224;34;20536;-62
2022/03/14 00:53:47;;;;;;;10.55;8.82;;;;;;;;;;4122085;34;20616;-62
2022/03/14 00:56:13;;;;;;;12.10;8.48;;;;;;;;;;4122081;34;20126;-62
2022/03/14 00:58:39;;;;;;;11.00;9.02;;;;;;;;;;4122008;34;20228;-62
2022/03/14 01:01:05;;;;;;;9.65;8.15;;;;;;;;;;4122155;34;20710;-61
2022/03/14 01:03:32;;;;;;;10.30;8.57;;;;;;;;;;4121996;34;20148;-62
2022/03/14 01:05:58;;;;;;;10.75;8.48;;;;;;;;;;4122052;34;20521;-62
2022/03/14 01:08:24;;;;;;;11.48;8.68;;;;;;;;;;4121884;34;20131;-62
2022/03/14 01:10:50;;;;;;;9.80;8.07;;;;;;;;;;4122980;34;20131;-63
2022/03/14 01:13:16;;;;;;;10.07;7.97;;;;;;;;;;4124138;34;20188;-63
2022/03/14 01:15:42;;;;;;;10.52;7.93;;;;;;;;;;4124127;34;20131;-64
2022/03/14 01:18:08;;;;;;;10.20;7.57;;;;;;;;;;4124060;34;20120;-64
2022/03/14 01:20:34;;;;;;;12.80;7.75;;;;;;;;;;4124066;34;20096;-64
2022/03/14 01:23:00;;;;;;;11.52;7.78;;;;;;;;;;4123918;34;20092;-64
2022/03/14 01:25:27;;;;;;;9.18;7.40;;;;;;;;;;4123940;34;20122;-64
2022/03/14 01:27:53;;;;;;;10.63;8.00;;;;;;;;;;4123990;34;20108;-64
2022/03/14 01:30:20;;;;;;;9.38;7.97;;;;;;;;;;4123855;34;20138;-64
2022/03/14 01:32:47;;;;;;;11.98;7.97;;;;;;;;;;4123902;34;20118;-64
2022/03/14 01:35:13;;;;;;;9.07;7.78;;;;;;;;;;4123909;34;20519;-63
2022/03/14 01:37:39;;;;;;;9.07;7.40;;;;;;;;;;4123964;34;20240;-64
2022/03/14 01:40:10;;;;;;;10.38;8.13;;;;;;;;;;4124113;34;20515;-65
2022/03/14 01:42:37;;;;;;;12.85;8.20;;;;;;;;;;4123955;34;20255;-63
2022/03/14 01:45:04;;;;;;;9.48;8.13;;;;;;;;;;4123776;34;20120;-63
2022/03/14 01:47:30;;;;;;;9.65;8.10;;;;;;;;;;4123920;34;20212;-62
2022/03/14 01:49:57;;;;;;;10.52;8.93;;;;;;;;;;4123700;34;20104;-63
2022/03/14 01:52:23;;;;;;;10.70;8.45;;;;;;;;;;4123800;34;20119;-63
2022/03/14 01:54:50;;;;;;;11.27;8.10;;;;;;;;;;4123609;34;20127;-63
2022/03/14 01:57:16;;;;;;;9.77;8.27;;;;;;;;;;4123779;34;20430;-63
2022/03/14 01:59:42;;;;;;;12.25;8.60;;;;;;;;;;4123714;34;20112;-63
2022/03/14 02:02:08;;;;;;;9.93;8.02;;;;;;;;;;4123893;34;20134;-63
2022/03/14 02:04:35;;;;;;;10.15;8.15;;;;;;;;;;4123941;34;20520;-63
2022/03/14 02:07:01;;;;;;;10.68;8.25;;;;;;;;;;4123644;34;20118;-65
2022/03/14 02:09:27;;;;;;;11.93;8.32;;;;;;;;;;4123625;34;20112;-64
2022/03/14 02:11:56;;;;;;;9.23;8.13;;;;;;;;;;4123810;34;20614;-64
2022/03/14 02:14:25;;;;;;;10.77;8.52;;;;;;;;;;4123680;34;20110;-64
2022/03/14 02:16:51;;;;;;;9.35;7.70;;;;;;;;;;4111305;34;20136;-63
2022/03/14 02:19:18;;;;;;;10.80;9.02;;;;;;;;;;4111211;34;20096;-64
2022/03/14 02:21:44;;;;;;;12.00;9.05;;;;;;;;;;4122301;34;20096;-63
2022/03/14 02:24:10;;;;;;;12.20;8.65;;;;;;;;;;4122305;34;20523;-64
2022/03/14 02:26:40;;;;;;;10.27;8.80;;;;;;;;;;4123583;34;20128;-64
2022/03/14 02:29:07;;;;;;;9.80;7.20;;;;;;;;;;4123532;34;20128;-65
2022/03/14 02:31:36;;;;;;;9.60;7.37;;;;;;;;;;4123152;34;20154;-64
2022/03/14 02:34:07;;;;;;;11.35;7.97;;;;;;;;;;4123639;34;20111;-62
2022/03/14 02:36:38;;;;;;;9.70;7.78;;;;;;;;;;4123656;34;20123;-62
2022/03/14 02:39:04;;;;;;;9.88;7.85;;;;;;;;;;4123550;34;20108;-64
2022/03/14 02:41:32;;;;;;;9.63;8.35;;;;;;;;;;4123391;34;20127;-65
2022/03/14 02:43:59;;;;;;;12.55;7.95;;;;;;;;;;4123631;34;20115;-64
2022/03/14 02:46:25;;;;;;;10.23;8.00;;;;;;;;;;4123274;34;20208;-65
2022/03/14 02:48:51;;;;;;;11.55;8.05;;;;;;;;;;4125398;34;20104;-64
2022/03/14 02:51:17;;;;;;;10.88;7.70;;;;;;;;;;4136947;34;20204;-64
2022/03/14 02:53:43;;;;;;;12.27;8.65;;;;;;;;;;4132809;34;20118;-66
2022/03/14 02:56:09;;;;;;;8.35;7.20;;;;;;;;;;4123988;34;20158;-64
2022/03/14 02:58:38;;;;;;;11.57;8.00;;;;;;;;;;4123091;34;20128;-63
2022/03/14 03:01:04;;;;;;;9.23;6.85;;;;;;;;;;4110279;34;20540;-63
2022/03/14 03:03:31;;;;;;;9.45;7.60;;;;;;;;;;4118341;34;20120;-64
2022/03/14 03:05:58;;;;;;;9.40;7.65;;;;;;;;;;4115666;34;20107;-62
2022/03/14 03:08:24;;;;;;;9.00;7.95;;;;;;;;;;4116066;34;20116;-64
2022/03/14 03:10:50;;;;;;;9.27;7.43;;;;;;;;;;4116353;34;21346;-63
2022/03/14 03:13:16;;;;;;;8.85;7.80;;;;;;;;;;4123253;34;20183;-63
2022/03/14 03:15:42;;;;;;;10.20;7.78;;;;;;;;;;4123152;34;20115;-64
2022/03/14 03:18:09;;;;;;;10.02;8.00;;;;;;;;;;4123014;34;20628;-64
2022/03/14 03:20:35;;;;;;;9.40;8.30;;;;;;;;;;4123029;34;20127;-64
2022/03/14 03:23:02;;;;;;;10.93;8.25;;;;;;;;;;4124837;34;20111;-63
2022/03/14 03:25:28;;;;;;;8.75;7.68;;;;;;;;;;4114041;34;20106;-64
2022/03/14 03:27:54;;;;;;;10.35;7.53;;;;;;;;;;4124217;34;20476;-68
2022/03/14 03:30:20;;;;;;;10.40;7.78;;;;;;;;;;4129523;34;20138;-63
2022/03/14 03:32:46;;;;;;;11.45;7.55;;;;;;;;;;4122275;34;20482;-64
2022/03/14 03:35:12;;;;;;;12.50;7.80;;;;;;;;;;4121281;34;20152;-62
2022/03/14 03:37:38;;;;;;;11.27;8.00;;;;;;;;;;4110489;34;20130;-63
2022/03/14 03:40:05;;;;;;;10.57;8.00;;;;;;;;;;4121465;34;20119;-63
2022/03/14 03:42:31;;;;;;;10.63;7.87;;;;;;;;;;4122202;34;20120;-63
2022/03/14 03:44:57;;;;;;;9.93;7.53;;;;;;;;;;4122640;34;20096;-62
2022/03/14 03:47:24;;;;;;;9.45;7.70;;;;;;;;;;4122918;34;20134;-60
2022/03/14 03:49:50;;;;;;;9.65;7.62;;;;;;;;;;4122622;34;20100;-63
2022/03/14 03:52:16;;;;;;;8.75;7.85;;;;;;;;;;4122773;34;20458;-64
2022/03/14 03:54:42;;;;;;;9.38;7.80;;;;;;;;;;4122700;34;20126;-62
2022/03/14 03:57:08;;;;;;;9.15;7.97;;;;;;;;;;4122719;34;20132;-66
2022/03/14 03:59:34;;;;;;;8.50;7.68;;;;;;;;;;4122596;34;20089;-65
2022/03/14 04:02:02;;;;;;;10.25;7.87;;;;;;;;;;4122854;34;20100;-65
2022/03/14 04:04:30;;;;;;;7.65;6.82;;;;;;;;;;4122589;34;20095;-66
2022/03/14 04:06:57;;;;;;;10.23;8.57;;;;;;;;;;4122872;34;20497;-65
2022/03/14 04:09:24;;;;;;;11.15;8.30;;;;;;;;;;4122500;34;20189;-66
2022/03/14 04:11:50;;;;;;;9.70;8.50;;;;;;;;;;4122467;34;20139;-66
2022/03/14 04:14:21;;;;;;;10.38;9.10;;;;;;;;;;4122526;34;20115;-66
2022/03/14 04:16:47;;;;;;;12.05;9.60;;;;;;;;;;4110051;34;20132;-65
2022/03/14 04:19:16;;;;;;;11.50;9.13;;;;;;;;;;4121304;34;20127;-66
2022/03/14 04:21:52;;;;;;;10.45;8.48;;;;;;;;;;4122586;34;20445;-65
2022/03/14 04:24:18;;;;;;;10.55;8.75;;;;;;;;;;4122340;34;20187;-65
2022/03/14 04:26:46;;;;;;;9.85;8.20;;;;;;;;;;4122524;34;20131;-66
2022/03/14 04:29:12;;;;;;;10.05;7.87;;;;;;;;;;4122132;34;20100;-65
2022/03/14 04:31:38;;;;;;;10.05;8.43;;;;;;;;;;4122488;34;20130;-65
2022/03/14 04:34:04;;;;;;;8.90;7.95;;;;;;;;;;4122183;34;20108;-65
2022/03/14 04:36:30;;;;;;;10.90;7.95;;;;;;;;;;4122402;34;20116;-65
2022/03/14 04:38:56;;;;;;;12.55;8.30;;;;;;;;;;4122173;34;20136;-65
2022/03/14 04:41:22;;;;;;;9.90;8.35;;;;;;;;;;4122551;34;20112;-64
2022/03/14 04:43:48;;;;;;;10.05;8.48;;;;;;;;;;4110045;34;20110;-65
2022/03/14 04:46:14;;;;;;;9.70;8.50;;;;;;;;;;4124289;34;20114;-65
2022/03/14 04:48:40;;;;;;;9.90;8.15;;;;;;;;;;4124231;34;20120;-65
2022/03/14 04:51:07;;;;;;;10.35;8.10;;;;;;;;;;4124453;34;20491;-63
2022/03/14 04:53:35;;;;;;;9.43;8.30;;;;;;;;;;4124236;34;20623;-60
2022/03/14 04:56:01;;;;;;;12.18;7.93;;;;;;;;;;4124388;34;20140;-70
2022/03/14 04:58:27;;;;;;;9.32;8.20;;;;;;;;;;4124251;34;20127;-63
2022/03/14 05:00:54;;;;;;;10.15;8.20;;;;;;;;;;4122796;34;20182;-62
2022/03/14 05:03:21;;;;;;;11.85;8.75;;;;;;;;;;4124137;34;20110;-60
2022/03/14 05:05:46;;;;;;;9.75;8.73;;;;;;;;;;4124190;34;20183;-59
2022/03/14 05:08:12;;;;;;;8.90;7.30;;;;;;;;;;4124111;34;20242;-60
2022/03/14 05:10:38;;;;;;;10.18;8.23;;;;;;;;;;4123968;34;20099;-61
2022/03/14 05:13:05;;;;;;;9.15;8.13;;;;;;;;;;4124159;34;20492;-61
2022/03/14 05:15:33;;;;;;;9.90;8.65;;;;;;;;;;4123937;34;20174;-60
2022/03/14 05:18:00;;;;;;;15.27;8.88;;;;;;;;;;4124136;34;20119;-62
2022/03/14 05:20:27;;;;;;;9.73;8.27;;;;;;;;;;4123974;34;20139;-61
2022/03/14 05:22:53;;;;;;;10.25;8.38;;;;;;;;;;4123861;34;20120;-62
2022/03/14 05:25:20;;;;;;;8.98;7.65;;;;;;;;;;4122431;34;20207;-62
2022/03/14 05:27:47;;;;;;;11.00;8.27;;;;;;;;;;4124269;34;20183;-62
2022/03/14 05:30:13;;;;;;;9.77;8.77;;;;;;;;;;4111256;34;20122;-62
2022/03/14 05:32:40;;;;;;;9.93;8.93;;;;;;;;;;4123980;34;20203;-62
2022/03/14 05:35:18;;;;;;;10.55;8.25;;;;;;;;;;4123617;34;20108;-61
2022/03/14 05:37:46;;;;;;;9.68;8.50;;;;;;;;;;4124060;34;20111;-61
2022/03/14 05:40:15;;;;;;;10.52;8.07;;;;;;;;;;4123722;34;20548;-61
2022/03/14 05:42:43;;;;;;;10.00;8.77;;;;;;;;;;4123959;34;20508;-60
2022/03/14 05:45:09;;;;;;;12.20;9.20;;;;;;;;;;4123690;34;20109;-61
2022/03/14 05:47:35;;;;;;;12.02;9.07;;;;;;;;;;4123896;34;20139;-61
2022/03/14 05:50:02;;;;;;;11.15;8.80;;;;;;;;;;4123564;34;20522;-60
2022/03/14 05:52:29;;;;;;;10.57;8.63;;;;;;;;;;4124002;34;20124;-60
2022/03/14 05:54:55;;;;;;;15.77;8.75;;;;;;;;;;4123663;34;20216;-61
2022/03/14 05:57:21;;;;;;;10.27;9.00;;;;;;;;;;4123390;34;20108;-61
2022/03/14 05:59:48;;;;;;;9.52;8.52;;;;;;;;;;4123545;34;20218;-62
2022/03/14 06:02:21;;;;;;;10.15;9.02;;;;;;;;;;4123590;34;20118;-61
2022/03/14 06:04:48;;;;;;;11.82;9.07;;;;;;;;;;4123502;34;20200;-59
2022/03/14 06:07:15;;;;;;;10.98;8.45;;;;;;;;;;4123597;34;20466;-60
2022/03/14 06:09:41;;;;;;;12.85;8.88;;;;;;;;;;4123545;34;20104;-60
2022/03/14 06:12:08;;;;;;;11.23;8.75;;;;;;;;;;4123762;34;20179;-60
2022/03/14 06:14:34;;;;;;;11.27;8.68;;;;;;;;;;4123584;34;20501;-59
2022/03/14 06:17:00;;;;;;;9.70;8.70;;;;;;;;;;4123770;34;20212;-61
2022/03/14 06:19:26;;;;;;;10.50;8.73;;;;;;;;;;4123789;34;20139;-62
2022/03/14 06:21:52;;;;;;;9.60;8.60;;;;;;;;;;4123679;34;20555;-62
2022/03/14 06:24:18;;;;;;;11.55;9.63;;;;;;;;;;4123460;34;20112;-62
2022/03/14 06:26:44;;;;;;;12.07;9.32;;;;;;;;;;4123392;34;20140;-62
2022/03/14 06:29:10;;;;;;;11.15;9.13;;;;;;;;;;4123397;34;20519;-62
2022/03/14 06:31:36;;;;;;;10.20;9.13;;;;;;;;;;4123835;34;20116;-61
2022/03/14 06:34:02;;;;;;;11.88;10.13;;;;;;;;;;4123357;34;20211;-60
2022/03/14 06:36:29;;;;;;;10.00;8.98;;;;;;;;;;4123379;34;20138;-63
2022/03/14 06:38:59;;;;;;;11.43;10.23;;;;;;;;;;4123388;34;20127;-61
2022/03/14 06:41:27;;;;;;;11.50;9.30;;;;;;;;;;4123456;34;20501;-61
2022/03/14 06:43:53;;;;;;;10.77;9.38;;;;;;;;;;4123395;34;20091;-61
2022/03/14 06:46:20;;;;;;;11.27;9.07;;;;;;;;;;4123442;34;20242;-62
2022/03/14 06:48:46;;;;;;;11.18;9.15;;;;;;;;;;4123298;34;20104;-62
2022/03/14 06:51:13;;;;;;;11.20;9.77;;;;;;;;;;4123297;34;20186;-60
2022/03/14 06:53:39;;;;;;;10.68;9.18;;;;;;;;;;4123527;34;20205;-62
2022/03/14 06:56:06;;;;;;;12.15;9.40;;;;;;;;;;4123309;34;20118;-62
2022/03/14 06:58:34;;;;;;;10.63;9.52;;;;;;;;;;4123165;34;20215;-60
2022/03/14 07:01:00;;;;;;;11.45;9.38;;;;;;;;;;4123090;34;20124;-61
2022/03/14 07:03:27;;;;;;;12.07;10.27;;;;;;;;;;4123104;34;20135;-60
2022/03/14 07:05:54;;;;;;;11.60;9.98;;;;;;;;;;4123191;34;20096;-62
2022/03/14 07:08:20;;;;;;;12.07;9.60;;;;;;;;;;4122275;34;20115;-61
2022/03/14 07:10:46;;;;;;;12.18;9.52;;;;;;;;;;4123119;34;20536;-62
2022/03/14 07:13:12;;;;;;;11.75;9.30;;;;;;;;;;4123138;34;20127;-62
2022/03/14 07:15:38;;;;;;;11.23;9.32;;;;;;;;;;4123124;34;20104;-63
2022/03/14 07:18:04;;;;;;;11.05;9.35;;;;;;;;;;4123284;34;20220;-61
2022/03/14 07:20:30;;;;;;;11.23;9.15;;;;;;;;;;4123096;34;20115;-65
2022/03/14 07:23:03;;;;;;;14.52;10.15;;;;;;;;;;4123282;34;20228;-64
2022/03/14 07:25:30;;;;;;;12.70;9.38;;;;;;;;;;4123039;34;20124;-64
2022/03/14 07:27:59;;;;;;;10.38;9.35;;;;;;;;;;4123060;34;20127;-64
2022/03/14 07:30:26;;;;;;;11.20;9.30;;;;;;;;;;4122860;34;20120;-64
2022/03/14 07:32:52;;;;;;;10.27;9.02;;;;;;;;;;4122929;34;20092;-63
2022/03/14 07:35:19;;;;;;;10.23;9.10;;;;;;;;;;4123047;34;20112;-64
2022/03/14 07:37:45;;;;;;;10.93;9.77;;;;;;;;;;4123009;34;20458;-63
2022/03/14 07:40:12;;;;;;;10.35;9.23;;;;;;;;;;4122693;34;20127;-64
2022/03/14 07:42:43;;;;;;;10.52;9.15;;;;;;;;;;4122843;34;20456;-63
2022/03/14 07:45:10;;;;;;;15.45;10.85;;;;;;;;;;4122535;34;20136;-64
2022/03/14 07:47:36;;;;;;;10.68;9.23;;;;;;;;;;4122922;34;20139;-64
2022/03/14 07:50:05;;;;;;;10.10;8.85;;;;;;;;;;4122581;34;20127;-64
2022/03/14 07:52:31;;;;;;;11.93;10.60;;;;;;;;;;4122891;34;20221;-62
2022/03/14 07:54:57;;;;;;;10.65;9.50;;;;;;;;;;4122692;34;20207;-62
2022/03/14 07:57:23;;;;;;;10.73;9.52;;;;;;;;;;4122778;34;20112;-65
2022/03/14 07:59:49;;;;;;;12.15;9.82;;;;;;;;;;4122672;34;20201;-61
2022/03/14 08:02:15;;;;;;;12.05;9.45;;;;;;;;;;4122605;34;20209;-66
2022/03/14 08:04:42;;;;;;;10.45;9.10;;;;;;;;;;4122689;34;20136;-63
2022/03/14 08:07:08;;;;;;;11.48;9.50;;;;;;;;;;4122509;34;20135;-62
2022/03/14 08:09:34;;;;;;;11.15;9.88;;;;;;;;;;4122599;34;20208;-61
2022/03/14 08:12:05;;;;;;;12.40;9.75;;;;;;;;;;4122664;34;20123;-62
2022/03/14 08:14:34;;;;;;;11.43;10.02;;;;;;;;;;4122786;34;20466;-63
2022/03/14 08:17:00;;;;;;;10.70;9.23;;;;;;;;;;4122649;34;20122;-62
2022/03/14 08:19:26;;;;;;;10.43;9.15;;;;;;;;;;4123144;34;20111;-60
2022/03/14 08:21:52;;;;;;;12.55;10.07;;;;;;;;;;4124454;34;20128;-62
2022/03/14 08:24:18;;;;;;;12.23;10.43;;;;;;;;;;4124415;34;20128;-60
2022/03/14 08:26:44;;;;;;;15.35;10.00;;;;;;;;;;4124516;34;20124;-63
2022/03/14 08:29:10;;;;;;;11.45;9.20;;;;;;;;;;4124436;34;20190;-62
2022/03/14 08:31:37;;;;;;;12.13;10.02;;;;;;;;;;4124352;34;20131;-63
2022/03/14 08:34:04;;;;;;;11.05;9.85;;;;;;;;;;4124209;34;20112;-62
2022/03/14 08:36:31;;;;;;;11.80;9.68;;;;;;;;;;4124518;34;20175;-62
2022/03/14 08:38:57;;;;;;;12.80;8.77;;;;;;;;;;4124406;34;20100;-62
2022/03/14 08:41:23;;;;;;;12.88;9.48;;;;;;;;;;4124310;34;20123;-62
2022/03/14 08:43:48;;;;;;;11.10;9.75;;;;;;;;;;4124569;34;20538;-62
2022/03/14 08:46:15;;;;;;;12.45;10.38;;;;;;;;;;4124325;34;20163;-62
2022/03/14 08:48:41;;;;;;;13.02;10.90;;;;;;;;;;4124294;34;20535;-61
2022/03/14 08:51:08;;;;;;;15.57;11.35;;;;;;;;;;4124253;34;20131;-61
2022/03/14 08:53:35;;;;;;;13.88;11.27;;;;;;;;;;4123801;34;20208;-59
2022/03/14 08:56:02;;;;;;;12.88;10.40;;;;;;;;;;4124117;34;20128;-61
2022/03/14 08:58:29;;;;;;;14.10;10.40;;;;;;;;;;4124149;34;20207;-61
2022/03/14 09:00:59;;;;;;;16.30;10.95;;;;;;;;;;4124353;34;20122;-60
2022/03/14 09:03:26;;;;;;;14.57;10.93;;;;;;;;;;4124129;34;20656;-62
2022/03/14 09:05:56;;;;;;;12.75;10.32;;;;;;;;;;4124159;34;20497;-61
2022/03/14 09:08:27;;;;;;;13.75;11.02;;;;;;;;;;4124095;34;20120;-60
2022/03/14 09:10:53;;;;;;;11.27;10.07;;;;;;;;;;4123866;34;20098;-60
2022/03/14 09:13:21;;;;;;;11.38;9.70;;;;;;;;;;4111766;34;20124;-61
2022/03/14 09:15:48;;;;;;;12.82;10.73;;;;;;;;;;4123987;34;20107;-59
2022/03/14 09:18:15;;;;;;;16.20;11.07;;;;;;;;;;4124104;34;20116;-60
2022/03/14 09:20:42;;;;;;;11.38;10.18;;;;;;;;;;4124007;34;20199;-61
2022/03/14 09:23:08;;;;;;;13.10;10.20;;;;;;;;;;4123999;34;20579;-61
2022/03/14 09:25:35;;;;;;;14.13;10.65;;;;;;;;;;4123948;34;20205;-61
2022/03/14 09:28:01;;;;;;;12.00;10.27;;;;;;;;;;4124229;34;20204;-61
2022/03/14 09:30:27;;;;;;;12.48;11.07;;;;;;;;;;4123442;34;20555;-61
2022/03/14 09:32:54;;;;;;;15.75;11.23;;;;;;;;;;4123711;34;20127;-61
2022/03/14 09:35:22;;;;;;;13.10;11.10;;;;;;;;;;4123843;34;20203;-61
2022/03/14 09:37:49;;;;;;;14.65;10.77;;;;;;;;;;4124006;34;20199;-61
2022/03/14 09:40:19;;;;;;;13.25;10.27;;;;;;;;;;4111492;34;20123;-60
2022/03/14 09:42:48;;;;;;;12.45;10.48;;;;;;;;;;4122672;34;20517;-61
2022/03/14 09:45:14;;;;;;;12.02;10.32;;;;;;;;;;4123805;34;20124;-61
2022/03/14 09:47:42;;;;;;;13.23;10.55;;;;;;;;;;4123885;34;20475;-62
2022/03/14 09:50:35;;;;;;;12.37;10.50;;;;;;;;;;4123663;34;20131;-60
2022/03/14 09:53:07;;;;;;;15.48;11.60;;;;;;;;;;4118482;34;20139;-59
2022/03/14 09:55:46;;;;;;;13.18;10.40;;;;;;;;;;4123750;34;20285;-61
2022/03/14 09:58:19;;;;;;;14.20;10.23;;;;;;;;;;4123849;34;20492;-60
2022/03/14 10:00:46;;;;;;;15.27;10.02;;;;;;;;;;4123752;34;20111;-61
2022/03/14 10:03:13;;;;;;;11.45;9.57;;;;;;;;;;4123687;34;20096;-61
2022/03/14 10:05:40;;;;;;;13.20;10.70;;;;;;;;;;4123554;34;20128;-61
2022/03/14 10:08:09;;;;;;;11.82;10.63;;;;;;;;;;4123644;34;20108;-61
2022/03/14 10:10:39;;;;;;;11.68;10.13;;;;;;;;;;4123785;34;20190;-61
2022/03/14 10:13:06;;;;;;;11.90;10.35;;;;;;;;;;4123605;34;20116;-62
2022/03/14 10:15:35;;;;;;;16.85;10.75;;;;;;;;;;4123549;34;20224;-61
2022/03/14 10:18:10;;;;;;;12.15;10.57;;;;;;;;;;4123554;34;20081;-61
2022/03/14 10:20:36;;;;;;;12.65;11.02;;;;;;;;;;4123618;34;20134;-61
2022/03/14 10:23:02;;;;;;;12.15;10.43;;;;;;;;;;4123350;34;20536;-61
2022/03/14 10:25:28;;;;;;;11.43;10.18;;;;;;;;;;4122925;34;20225;-61
2022/03/14 10:27:57;;;;;;;12.57;10.48;;;;;;;;;;4122726;34;20544;-61
2022/03/14 10:30:30;;;;;;;13.30;10.70;;;;;;;;;;4123376;34;20211;-62
2022/03/14 10:33:10;;;;;;;15.80;10.93;;;;;;;;;;4121203;34;20108;-62
2022/03/14 10:35:42;;;;;;;12.23;10.57;;;;;;;;;;4119283;34;20144;-62
2022/03/14 10:38:11;;;;;;;13.00;11.23;;;;;;;;;;4120869;34;20563;-61
2022/03/14 10:40:39;;;;;;;14.77;11.18;;;;;;;;;;4121410;34;20104;-62
2022/03/14 10:43:27;;;;;;;17.05;12.02;;;;;;;;;;4120225;34;20219;-62
2022/03/14 10:45:55;;;;;;;14.18;10.65;;;;;;;;;;4118934;34;20127;-62
2022/03/14 10:48:34;;;;;;;14.48;10.82;;;;;;;;;;4122022;34;20112;-62
2022/03/14 10:51:05;;;;;;;11.20;10.00;;;;;;;;;;4123318;34;20123;-62
2022/03/14 10:53:34;;;;;;;12.48;11.18;;;;;;;;;;4123230;34;20103;-61
2022/03/14 10:56:01;;;;;;;14.40;11.20;;;;;;;;;;4121082;34;20116;-61
2022/03/14 10:58:30;;;;;;;13.10;10.85;;;;;;;;;;4120213;34;20180;-62
2022/03/14 11:00:58;;;;;;;14.02;12.10;;;;;;;;;;4120295;34;20234;-62
2022/03/14 11:03:29;;;;;;;14.30;11.23;;;;;;;;;;4118691;34;20599;-62
2022/03/14 11:05:58;;;;;;;14.52;11.45;;;;;;;;;;4120133;34;20123;-63
2022/03/14 11:08:28;;;;;;;18.77;12.10;;;;;;;;;;4121624;34;20107;-62
2022/03/14 11:10:55;;;;;;;14.73;11.68;;;;;;;;;;4120505;34;20104;-62
2022/03/14 11:13:21;;;;;;;16.40;12.02;;;;;;;;;;4123197;34;20131;-61
2022/03/14 11:15:48;;;;;;;18.40;12.27;;;;;;;;;;4122959;34;20477;-62
2022/03/14 11:18:16;;;;;;;14.90;12.48;;;;;;;;;;4121909;34;20112;-64
2022/03/14 11:20:42;;;;;;;14.93;12.02;;;;;;;;;;4121698;34;20096;-63
2022/03/14 11:23:10;;;;;;;15.40;11.68;;;;;;;;;;4122954;34;20418;-62
2022/03/14 11:25:37;;;;;;;15.05;11.75;;;;;;;;;;4120814;34;20668;-63
2022/03/14 11:28:04;;;;;;;13.25;11.20;;;;;;;;;;4122244;34;20150;-63
2022/03/14 11:30:35;;;;;;;12.65;11.32;;;;;;;;;;4121346;34;20116;-63
2022/03/14 11:33:03;;;;;;;17.33;11.88;;;;;;;;;;4123015;34;20125;-62
2022/03/14 11:35:30;;;;;;;15.13;12.30;;;;;;;;;;4122790;34;20104;-64
2022/03/14 11:37:56;;;;;;;14.45;11.82;;;;;;;;;;4122958;34;20140;-62
2022/03/14 11:40:22;;;;;;;16.50;12.55;;;;;;;;;;4122792;34;20617;-62
2022/03/14 11:42:48;;;;;;;13.77;12.00;;;;;;;;;;4122906;34;20520;-63
2022/03/14 11:45:15;;;;;;;13.65;11.35;;;;;;;;;;4122784;34;20115;-63
2022/03/14 11:47:42;;;;;;;14.13;11.85;;;;;;;;;;4122872;34;20549;-64
2022/03/14 11:50:08;;;;;;;14.98;12.48;;;;;;;;;;4110203;34;20112;-65
2022/03/14 11:52:40;;;;;;;12.02;10.73;;;;;;;;;;4122811;34;20473;-65
2022/03/14 11:55:21;;;;;;;14.13;12.27;;;;;;;;;;4109743;34;20233;-66
2022/03/14 11:57:47;;;;;;;13.77;11.43;;;;;;;;;;4121547;34;20645;-65
2022/03/14 12:00:27;;;;;;;13.15;11.70;;;;;;;;;;4122636;34;20520;-65
2022/03/14 12:02:55;;;;;;;14.98;12.60;;;;;;;;;;4122919;34;20480;-64
2022/03/14 12:05:22;;;;;;;19.20;12.65;;;;;;;;;;4122572;34;20116;-65
2022/03/14 12:07:48;;;;;;;16.45;12.25;;;;;;;;;;4110391;34;20438;-65
2022/03/14 12:10:28;;;;;;;15.60;12.37;;;;;;;;;;4122526;34;20209;-64
2022/03/14 12:12:55;;;;;;;13.05;11.70;;;;;;;;;;4122630;34;20115;-64
2022/03/14 12:15:37;;;;;;;15.50;12.32;;;;;;;;;;4122429;34;20111;-64
2022/03/14 12:18:25;;;;;;;15.65;11.68;;;;;;;;;;4122540;34;20619;-65
2022/03/14 12:20:59;;;;;;;13.62;12.02;;;;;;;;;;4122310;34;20104;-65
2022/03/14 12:23:27;;;;;;;15.15;12.10;;;;;;;;;;4110026;34;20519;-64
2022/03/14 12:25:54;;;;;;;14.25;12.37;;;;;;;;;;4122273;34;20124;-66
2022/03/14 12:28:52;;;;;;;14.50;11.90;;;;;;;;;;4122445;34;20134;-63
2022/03/14 12:31:19;;;;;;;14.93;11.80;;;;;;;;;;4120336;34;20119;-63
2022/03/14 12:33:47;;;;;;;13.70;11.98;;;;;;;;;;4122374;34;20214;-62
2022/03/14 12:36:19;;;;;;;15.00;12.27;;;;;;;;;;4122348;34;20120;-65
2022/03/14 12:39:10;;;;;;;14.93;12.82;;;;;;;;;;4122268;34;20122;-65
2022/03/14 12:41:37;;;;;;;14.13;11.57;;;;;;;;;;4122415;34;20285;-65
2022/03/14 12:44:16;;;;;;;17.50;12.73;;;;;;;;;;4109817;34;20127;-65
2022/03/14 12:46:46;;;;;;;16.37;12.77;;;;;;;;;;4122217;34;20191;-62
2022/03/14 12:49:23;;;;;;;15.52;12.23;;;;;;;;;;4122058;34;20547;-64
2022/03/14 12:52:11;;;;;;;16.02;13.10;;;;;;;;;;4122324;34;20100;-65
2022/03/14 12:54:38;;;;;;;14.32;12.82;;;;;;;;;;4122213;34;20124;-64
2022/03/14 12:57:05;;;;;;;15.75;11.98;;;;;;;;;;4122180;34;20119;-62
2022/03/14 12:59:32;;;;;;;17.15;12.48;;;;;;;;;;4121907;34;20135;-63
2022/03/14 13:01:58;;;;;;;14.63;11.38;;;;;;;;;;4122156;34;20124;-63
2022/03/14 13:04:24;;;;;;;17.90;12.52;;;;;;;;;;4122006;34;20118;-66
2022/03/14 13:06:51;;;;;;;14.70;12.90;;;;;;;;;;4123757;34;20107;-63
2022/03/14 13:09:32;;;;;;;15.45;12.73;;;;;;;;;;4123983;34;20117;-64
2022/03/14 13:11:59;;;;;;;13.80;11.65;;;;;;;;;;4124058;34;20517;-63
2022/03/14 13:14:26;;;;;;;13.75;11.55;;;;;;;;;;4124028;34;20241;-62
2022/03/14 13:16:54;;;;;;;13.07;11.77;;;;;;;;;;4124265;34;20203;-63
2022/03/14 13:19:24;;;;;;;16.40;11.40;;;;;;;;;;4124037;34;20103;-68
2022/03/14 13:21:51;;;;;;;13.18;10.85;;;;;;;;;;4124066;34;20519;-69
2022/03/14 13:24:18;;;;;;;13.00;10.80;;;;;;;;;;4124100;34;20100;-69
2022/03/14 13:26:46;;;;;;;12.15;10.95;;;;;;;;;;4111795;34;20222;-69
2022/03/14 13:29:13;;;;;;;14.32;12.00;;;;;;;;;;4124007;34;20560;-69
2022/03/14 13:31:40;;;;;;;13.05;11.05;;;;;;;;;;4124070;34;20124;-69
2022/03/14 13:34:09;;;;;;;11.27;9.77;;;;;;;;;;4122940;34;20394;-69
2022/03/14 13:36:41;;;;;;;12.27;10.77;;;;;;;;;;4123869;34;20135;-69
2022/03/14 13:39:09;;;;;;;14.70;10.95;;;;;;;;;;4111632;34;20131;-69
2022/03/14 13:41:35;;;;;;;12.10;10.00;;;;;;;;;;4124040;34;20123;-68
2022/03/14 13:44:03;;;;;;;11.93;10.20;;;;;;;;;;4123724;34;20134;-68
2022/03/14 13:46:36;;;;;;;11.05;9.45;;;;;;;;;;4123810;34;20123;-68
2022/03/14 13:49:18;;;;;;;13.43;10.90;;;;;;;;;;4111358;34;20119;-68
2022/03/14 13:51:47;;;;;;;11.15;10.05;;;;;;;;;;4123867;34;20172;-70
2022/03/14 13:54:19;;;;;;;14.87;10.25;;;;;;;;;;4123772;34;20103;-69
2022/03/14 13:56:47;;;;;;;12.15;10.02;;;;;;;;;;4123864;34;20544;-69
2022/03/14 13:59:31;;;;;;;13.10;10.32;;;;;;;;;;4123635;34;20100;-69
2022/03/14 14:02:10;;;;;;;13.90;9.65;;;;;;;;;;4123791;34;20449;-69
2022/03/14 14:04:42;;;;;;;13.13;10.52;;;;;;;;;;4123791;34;20536;-71
2022/03/14 14:07:28;;;;;;;10.73;9.63;;;;;;;;;;4123682;34;20659;-70
2022/03/14 14:09:56;;;;;;;14.05;9.55;;;;;;;;;;4111156;34;20104;-70
2022/03/14 14:12:33;;;;;;;12.70;10.77;;;;;;;;;;4123690;34;20125;-71
2022/03/14 14:15:07;;;;;;;12.25;10.75;;;;;;;;;;4123421;34;20126;-71
2022/03/14 14:17:36;;;;;;;14.15;10.55;;;;;;;;;;4123315;34;20170;-66
2022/03/14 14:20:09;;;;;;;12.13;10.23;;;;;;;;;;4123427;34;20507;-63
2022/03/14 14:22:43;;;;;;;13.05;10.45;;;;;;;;;;4123443;34;20096;-59
2022/03/14 14:25:29;;;;;;;15.27;10.75;;;;;;;;;;4123405;34;20204;-65
2022/03/14 14:28:00;;;;;;;13.30;10.20;;;;;;;;;;4123498;34;20457;-59
2022/03/14 14:30:35;;;;;;;12.80;9.95;;;;;;;;;;4123386;34;20135;-66
2022/03/14 14:33:04;;;;;;;15.75;12.90;;;;;;;;;;4123549;34;20108;-67
2022/03/14 14:35:31;;;;;;;14.00;10.88;;;;;;;;;;4123378;34;20104;-67
2022/03/14 14:37:57;;;;;;;13.70;11.20;;;;;;;;;;4123429;34;20135;-65
2022/03/14 14:40:23;;;;;;;13.38;11.38;;;;;;;;;;4123377;34;20130;-67
2022/03/14 14:42:50;;;;;;;13.30;11.05;;;;;;;;;;4123374;34;20131;-68
2022/03/14 14:45:16;;;;;;;14.87;11.88;;;;;;;;;;4121895;34;20154;-67
2022/03/14 14:47:42;;;;;;;13.05;11.63;;;;;;;;;;4123448;34;20528;-65
2022/03/14 14:50:09;;;;;;;24.10;15.63;;;;;;;;;;4122992;34;20183;-66
2022/03/14 14:52:35;;;;;;;15.35;13.07;;;;;;;;;;4123340;34;20205;-65